Time;durP1;ratioP1;P1;durP2;ratioP2;P2;SDS_P1;SDS_P2;PMS_P1;PMS_P2;Temp;Humidity;BMP_temperature;BMP_pressure;BME280_temperature;BME280_humidity;BME280_pressure;Samples;Min_cycle;Max_cycle;Signal;HPM_P1;HPM_P2
2023/10/12 00:01:26;;;;;;;20.13;13.27;;;16.20;99.90;;;;;;5006573;28;20084;-58
2023/10/12 00:03:59;;;;;;;21.45;13.40;;;16.30;99.90;;;;;;5009061;28;20525;-57
2023/10/12 00:06:30;;;;;;;18.42;12.90;;;16.20;99.90;;;;;;5016126;28;20056;-61
2023/10/12 00:08:57;;;;;;;22.17;13.77;;;16.30;99.90;;;;;;5015209;28;20064;-58
2023/10/12 00:11:36;;;;;;;18.85;13.30;;;16.30;99.90;;;;;;5015140;28;20064;-63
2023/10/12 00:14:04;;;;;;;19.38;13.15;;;16.30;99.90;;;;;;5010211;28;20128;-58
2023/10/12 00:16:31;;;;;;;20.67;13.18;;;16.20;99.90;;;;;;5009740;28;20096;-59
2023/10/12 00:18:58;;;;;;;19.35;13.13;;;16.20;99.90;;;;;;5009090;28;20520;-59
2023/10/12 00:21:35;;;;;;;22.02;13.85;;;16.10;99.90;;;;;;5009273;28;20077;-59
2023/10/12 00:24:02;;;;;;;25.38;13.27;;;16.10;99.90;;;;;;5008803;28;20069;-63
2023/10/12 00:26:31;;;;;;;25.05;13.18;;;16.10;99.90;;;;;;5008530;28;20371;-59
2023/10/12 00:28:58;;;;;;;19.10;13.30;;;16.00;99.90;;;;;;5014760;28;20124;-58
2023/10/12 00:31:25;;;;;;;27.35;14.73;;;16.10;99.90;;;;;;5008777;28;20104;-59
2023/10/12 00:33:52;;;;;;;23.73;12.70;;;16.10;99.90;;;;;;5020807;28;20056;-59
2023/10/12 00:36:22;;;;;;;27.48;13.70;;;16.00;99.90;;;;;;5009088;28;20053;-62
2023/10/12 00:38:51;;;;;;;20.90;13.88;;;16.10;99.90;;;;;;5016430;28;20049;-58
2023/10/12 00:41:19;;;;;;;23.88;14.02;;;16.10;99.90;;;;;;5008236;28;20057;-58
2023/10/12 00:44:08;;;;;;;21.55;13.75;;;16.10;99.90;;;;;;5020574;28;20061;-59
2023/10/12 00:51:50;;;;;;;19.50;12.48;;;16.20;99.90;;;;;;5009457;28;20060;-60
2023/10/12 00:54:25;;;;;;;;;;;16.20;99.90;;;;;;5017622;28;20374;-58
2023/10/12 00:57:10;;;;;;;19.48;11.30;;;16.20;99.90;;;;;;5008358;28;20274;-58
2023/10/12 00:59:38;;;;;;;19.95;12.80;;;16.20;99.90;;;;;;5018224;28;20111;-59
2023/10/12 01:02:08;;;;;;;20.10;11.45;;;16.10;99.90;;;;;;5009290;28;20081;-59
2023/10/12 01:04:36;;;;;;;16.38;11.60;;;16.10;99.90;;;;;;5009881;28;20052;-59
2023/10/12 01:07:06;;;;;;;19.23;12.80;;;16.10;99.90;;;;;;5007679;28;20378;-58
2023/10/12 01:09:39;;;;;;;15.85;10.52;;;16.20;99.90;;;;;;4672185;28;10000273;-59
2023/10/12 01:12:17;;;;;;;18.35;11.52;;;16.20;99.90;;;;;;5012316;28;20049;-59
2023/10/12 01:14:47;;;;;;;18.38;11.90;;;16.20;99.90;;;;;;5010386;28;20046;-59
2023/10/12 01:17:17;;;;;;;21.40;11.45;;;16.20;99.90;;;;;;5009820;28;20128;-59
2023/10/12 01:19:44;;;;;;;21.05;12.60;;;16.30;99.90;;;;;;5009197;28;20053;-60
2023/10/12 01:22:12;;;;;;;20.83;11.55;;;16.30;99.90;;;;;;5009710;28;20285;-61
2023/10/12 01:27:22;;;;;;;20.63;11.75;;;16.30;99.90;;;;;;4993639;28;20306;-59
2023/10/12 01:29:50;;;;;;;26.05;11.18;;;16.30;99.90;;;;;;5023551;28;20453;-57
2023/10/12 01:34:51;;;;;;;28.73;11.77;;;16.30;99.90;;;;;;5016016;28;20057;-57
2023/10/12 01:37:27;;;;;;;;;;;16.30;99.90;;;;;;5010739;28;20050;-57
2023/10/12 01:39:58;;;;;;;16.83;9.38;;;16.30;99.90;;;;;;5016449;28;20164;-58
2023/10/12 01:42:35;;;;;;;21.17;10.48;;;16.30;99.90;;;;;;4993063;28;20241;-64
2023/10/12 01:45:04;;;;;;;17.65;9.05;;;16.30;99.90;;;;;;5008733;28;20042;-58
2023/10/12 01:47:37;;;;;;;13.55;8.07;;;16.30;99.90;;;;;;5008476;28;20119;-57
2023/10/12 01:50:06;;;;;;;18.80;8.32;;;16.40;99.90;;;;;;5014817;28;20413;-58
2023/10/12 01:52:34;;;;;;;19.13;9.00;;;16.40;99.90;;;;;;5004784;28;20497;-58
2023/10/12 01:55:02;;;;;;;20.13;8.23;;;16.40;99.90;;;;;;5004053;28;20413;-58
2023/10/12 01:57:36;;;;;;;18.17;8.52;;;16.40;99.90;;;;;;5013535;28;20066;-57
2023/10/12 02:00:07;;;;;;;19.67;9.23;;;16.40;99.90;;;;;;5001410;28;20096;-58
2023/10/12 02:02:34;;;;;;;16.83;8.00;;;16.50;99.90;;;;;;5013482;28;20489;-58
2023/10/12 02:05:01;;;;;;;17.17;8.13;;;16.50;99.90;;;;;;5009744;28;20038;-57
2023/10/12 02:07:28;;;;;;;17.92;8.73;;;16.50;99.90;;;;;;5016548;28;20475;-58
2023/10/12 02:09:55;;;;;;;16.83;7.72;;;16.50;99.90;;;;;;5003873;28;20185;-56
2023/10/12 02:12:25;;;;;;;21.40;7.88;;;16.50;99.90;;;;;;4997682;28;20064;-62
2023/10/12 02:14:52;;;;;;;18.45;7.60;;;16.60;99.90;;;;;;5007059;28;20319;-56
2023/10/12 02:17:25;;;;;;;12.55;7.53;;;16.60;99.90;;;;;;5019117;28;20065;-57
2023/10/12 02:19:53;;;;;;;16.55;7.57;;;16.60;99.90;;;;;;5008137;28;20041;-57
2023/10/12 02:22:29;;;;;;;19.30;8.30;;;16.60;99.90;;;;;;5007068;28;20046;-57
2023/10/12 02:25:18;;;;;;;17.58;7.63;;;16.70;99.90;;;;;;5008004;28;20077;-57
2023/10/12 02:27:55;;;;;;;15.88;8.23;;;16.60;99.90;;;;;;5017639;28;20046;-57
2023/10/12 02:30:27;;;;;;;20.77;8.65;;;16.70;99.90;;;;;;5007356;28;20055;-57
2023/10/12 02:33:01;;;;;;;23.90;8.85;;;16.60;99.90;;;;;;5016822;28;20050;-57
2023/10/12 02:35:37;;;;;;;14.82;8.07;;;16.70;99.90;;;;;;5005973;28;20078;-57
2023/10/12 02:38:14;;;;;;;13.63;7.47;;;16.70;99.90;;;;;;5013846;28;20186;-57
2023/10/12 02:40:45;;;;;;;15.93;7.57;;;16.70;99.90;;;;;;5008384;28;20042;-57
2023/10/12 02:43:11;;;;;;;16.35;6.50;;;16.70;99.90;;;;;;5021847;28;20092;-57
2023/10/12 02:45:42;;;;;;;17.88;7.57;;;16.70;99.90;;;;;;5010842;28;20046;-58
2023/10/12 02:48:13;;;;;;;10.77;6.97;;;16.70;99.90;;;;;;5022556;28;20493;-57
2023/10/12 02:50:57;;;;;;;14.55;6.65;;;16.70;99.90;;;;;;5010804;28;20125;-57
2023/10/12 02:53:30;;;;;;;13.73;6.65;;;16.70;99.90;;;;;;5016695;28;20053;-58
2023/10/12 02:56:01;;;;;;;11.73;5.47;;;16.70;99.90;;;;;;5010615;28;20160;-57
2023/10/12 02:58:30;;;;;;;13.85;5.00;;;16.70;99.90;;;;;;5017887;28;20097;-57
2023/10/12 03:01:12;;;;;;;10.60;6.50;;;16.70;99.90;;;;;;5010312;28;20540;-57
2023/10/12 03:03:47;;;;;;;14.88;6.05;;;16.70;99.90;;;;;;5021269;28;20421;-59
2023/10/12 03:06:23;;;;;;;11.88;5.35;;;16.70;99.90;;;;;;5010384;28;20042;-58
2023/10/12 03:11:27;;;;;;;12.32;6.13;;;16.70;99.90;;;;;;5024531;28;20046;-58
2023/10/12 03:13:59;;;;;;;12.25;5.75;;;16.70;99.90;;;;;;5021096;28;20049;-57
2023/10/12 03:16:41;;;;;;;12.63;6.00;;;16.70;99.90;;;;;;5009113;28;20065;-58
2023/10/12 03:19:18;;;;;;;10.70;4.32;;;16.70;99.90;;;;;;5017439;28;20052;-57
2023/10/12 03:21:49;;;;;;;9.48;5.20;;;16.70;99.90;;;;;;5023907;28;20092;-58
2023/10/12 03:24:16;;;;;;;8.48;4.65;;;16.70;99.90;;;;;;5021075;28;20398;-58
2023/10/12 03:26:49;;;;;;;12.48;5.47;;;16.70;99.90;;;;;;5025210;28;20075;-57
2023/10/12 03:29:18;;;;;;;13.18;4.35;;;16.70;99.90;;;;;;5020312;28;20050;-58
2023/10/12 03:34:30;;;;;;;14.23;5.80;;;16.80;99.90;;;;;;5020801;28;20124;-57
2023/10/12 03:37:01;;;;;;;12.30;5.22;;;16.80;99.90;;;;;;5007962;28;20038;-57
2023/10/12 03:39:30;;;;;;;12.85;6.18;;;16.80;99.90;;;;;;5012684;28;20058;-57
2023/10/12 03:46:57;;;;;;;21.45;6.20;;;16.80;99.90;;;;;;5009550;28;20145;-59
2023/10/12 03:49:32;;;;;;;17.65;6.55;;;16.80;99.90;;;;;;5019466;28;20489;-59
2023/10/12 03:52:00;;;;;;;14.60;5.75;;;16.80;99.90;;;;;;5000255;28;20049;-59
2023/10/12 03:54:30;;;;;;;14.00;5.63;;;16.80;99.90;;;;;;5018616;28;20140;-58
2023/10/12 04:00:23;;;;;;;13.07;5.35;;;16.80;99.90;;;;;;5022424;28;20042;-57
2023/10/12 04:02:42;;;;;;;15.98;6.90;;;16.90;99.90;;;;;;5011957;28;20046;-58
2023/10/12 04:05:34;;;;;;;13.65;5.93;;;16.80;99.90;;;;;;5007169;28;21043;-60
2023/10/12 04:19:03;;;;;;;11.98;5.88;;;16.90;99.90;;;;;;5009169;28;20057;-59
2023/10/12 04:21:56;;;;;;;11.27;5.63;;;16.90;99.90;;;;;;5019668;28;20058;-59
2023/10/12 04:24:42;;;;;;;11.88;5.97;;;16.90;99.90;;;;;;5005685;28;20135;-59
2023/10/12 04:27:59;;;;;;;10.48;5.38;;;16.90;99.90;;;;;;5001626;28;20295;-59
2023/10/12 04:30:08;;;;;;;14.63;5.72;;;17.00;99.90;;;;;;5006810;28;20150;-59
2023/10/12 04:32:52;;;;;;;16.20;5.82;;;16.90;99.90;;;;;;5014705;28;20045;-58
2023/10/12 04:35:52;;;;;;;20.45;7.20;;;16.90;99.90;;;;;;5004239;28;20500;-58
2023/10/12 04:38:10;;;;;;;10.18;5.53;;;16.90;99.90;;;;;;5010686;28;20038;-58
2023/10/12 04:40:37;;;;;;;8.25;3.95;;;16.90;99.90;;;;;;5014483;28;20049;-59
2023/10/12 04:43:07;;;;;;;4.78;3.50;;;16.80;99.90;;;;;;5013997;28;20116;-58
2023/10/12 04:46:05;;;;;;;6.55;3.05;;;16.70;99.90;;;;;;5002282;28;20042;-58
2023/10/12 04:48:31;;;;;;;7.13;3.33;;;16.60;99.90;;;;;;5011847;28;20046;-58
2023/10/12 04:51:07;;;;;;;5.35;2.78;;;16.50;99.90;;;;;;5014515;28;20126;-58
2023/10/12 04:56:19;;;;;;;3.53;2.45;;;16.40;99.90;;;;;;5021292;28;20049;-58
2023/10/12 04:58:59;;;;;;;2.90;2.63;;;16.40;99.90;;;;;;5008175;28;20054;-57
2023/10/12 05:01:40;;;;;;;5.05;2.38;;;16.40;99.90;;;;;;5022778;28;20050;-58
2023/10/12 05:04:24;;;;;;;3.67;2.28;;;16.30;99.90;;;;;;5007466;28;20497;-58
2023/10/12 05:09:39;;;;;;;7.82;2.50;;;16.10;99.90;;;;;;4998726;28;20054;-60
2023/10/12 05:12:07;;;;;;;4.32;2.15;;;16.00;99.90;;;;;;5008089;28;20092;-58
2023/10/12 05:14:34;;;;;;;2.17;1.98;;;15.90;99.90;;;;;;5008621;28;20053;-57
2023/10/12 05:17:00;;;;;;;4.03;2.45;;;16.00;99.90;;;;;;5013606;28;20303;-58
2023/10/12 05:19:27;;;;;;;4.10;2.28;;;16.00;99.90;;;;;;5011176;28;20412;-58
2023/10/12 05:21:58;;;;;;;3.78;2.50;;;16.00;99.90;;;;;;5013206;28;20041;-58
2023/10/12 05:24:25;;;;;;;3.70;2.22;;;15.90;99.90;;;;;;4990155;28;20061;-61
2023/10/12 05:27:09;;;;;;;7.72;3.22;;;15.90;99.90;;;;;;5006286;28;20050;-58
2023/10/12 05:29:38;;;;;;;3.08;2.58;;;15.90;99.90;;;;;;5007764;28;20068;-59
2023/10/12 05:32:06;;;;;;;4.32;3.00;;;15.90;99.90;;;;;;5009439;28;20389;-58
2023/10/12 05:34:44;;;;;;;3.33;2.80;;;15.90;99.90;;;;;;5014858;28;20515;-57
2023/10/12 05:39:51;;;;;;;3.38;2.95;;;16.00;99.90;;;;;;5007851;28;20053;-57
2023/10/12 05:42:25;;;;;;;6.00;3.03;;;15.90;99.90;;;;;;5010390;28;20086;-57
2023/10/12 05:44:53;;;;;;;;;;;16.00;99.90;;;;;;5014490;28;20061;-58
2023/10/12 05:47:29;;;;;;;4.43;3.08;;;15.90;99.90;;;;;;5007422;28;20343;-57
2023/10/12 05:49:59;;;;;;;4.15;2.90;;;15.90;99.90;;;;;;5008333;28;20054;-57
2023/10/12 05:52:26;;;;;;;4.35;3.47;;;15.90;99.90;;;;;;5008282;28;20549;-57
2023/10/12 05:54:59;;;;;;;4.60;3.35;;;15.90;99.90;;;;;;5013115;28;20124;-58
2023/10/12 05:57:29;;;;;;;7.95;3.97;;;15.90;99.90;;;;;;5011187;28;20128;-60
2023/10/12 06:00:00;;;;;;;11.02;4.05;;;15.90;99.90;;;;;;5004898;28;20124;-58
2023/10/12 06:02:28;;;;;;;7.68;4.00;;;15.90;99.90;;;;;;5017496;28;20038;-56
2023/10/12 06:04:56;;;;;;;5.95;3.95;;;15.90;99.90;;;;;;5015424;28;20042;-57
2023/10/12 06:07:24;;;;;;;6.43;4.30;;;15.90;99.90;;;;;;5015520;28;20549;-58
2023/10/12 06:09:53;;;;;;;4.22;3.53;;;15.90;99.90;;;;;;5018084;28;20042;-58
2023/10/12 06:12:24;;;;;;;7.60;4.00;;;15.90;99.90;;;;;;5017824;28;20049;-58
2023/10/12 06:14:55;;;;;;;5.75;3.70;;;15.90;99.90;;;;;;5020009;28;20052;-58
2023/10/12 06:17:30;;;;;;;4.78;4.28;;;15.80;99.90;;;;;;5011312;28;20050;-57
2023/10/12 06:20:10;;;;;;;5.47;3.97;;;15.80;99.90;;;;;;5021648;28;20125;-56
2023/10/12 06:22:38;;;;;;;5.32;3.97;;;15.80;99.90;;;;;;5011921;28;20100;-58
2023/10/12 06:25:11;;;;;;;7.95;4.43;;;15.80;99.90;;;;;;5023950;28;20062;-56
2023/10/12 06:27:38;;;;;;;6.22;4.32;;;15.80;99.90;;;;;;5017191;28;20145;-58
2023/10/12 06:30:16;;;;;;;7.32;4.63;;;15.80;99.90;;;;;;5022936;28;20095;-58
2023/10/12 06:32:47;;;;;;;7.13;5.07;;;15.80;99.90;;;;;;5018781;28;20078;-58
2023/10/12 06:35:25;;;;;;;6.93;4.78;;;15.70;99.90;;;;;;5022602;28;20394;-57
2023/10/12 06:46:15;;;;;;;7.50;4.75;;;15.60;99.90;;;;;;5013142;28;20067;-57
2023/10/12 06:51:12;;;;;;;7.95;5.28;;;15.70;99.90;;;;;;5018666;28;20089;-58
2023/10/12 06:53:41;;;;;;;6.82;4.68;;;15.70;99.90;;;;;;5014902;28;20080;-58
2023/10/12 06:59:12;;;;;;;7.00;4.05;;;15.70;99.90;;;;;;5017053;28;20112;-56
2023/10/12 07:04:27;;;;;;;5.18;4.07;;;15.70;99.90;;;;;;5015667;28;20049;-63
2023/10/12 07:07:07;;;;;;;7.95;3.90;;;15.60;99.90;;;;;;5023883;28;20053;-61
2023/10/12 07:09:42;;;;;;;5.53;3.88;;;15.70;99.90;;;;;;5011136;28;20489;-58
2023/10/12 07:12:11;;;;;;;7.43;4.25;;;15.70;99.90;;;;;;5012820;28;20500;-62
2023/10/12 07:14:53;;;;;;;5.78;4.32;;;15.70;99.90;;;;;;5016009;28;20057;-59
2023/10/12 07:17:31;;;;;;;6.22;4.85;;;15.70;99.90;;;;;;5019691;28;20092;-58
2023/10/12 07:19:59;;;;;;;6.70;4.88;;;15.70;99.90;;;;;;5015056;28;20132;-59
2023/10/12 07:22:26;;;;;;;5.97;4.95;;;15.70;99.90;;;;;;5014345;28;20073;-58
2023/10/12 07:24:53;;;;;;;13.35;5.45;;;15.80;99.90;;;;;;5020429;28;20049;-59
2023/10/12 07:27:22;;;;;;;8.05;4.25;;;15.80;99.90;;;;;;5021150;28;20107;-58
2023/10/12 07:30:15;;;;;;;7.93;5.05;;;15.80;99.90;;;;;;5021249;28;20054;-59
2023/10/12 07:32:54;;;;;;;7.05;4.53;;;15.80;99.90;;;;;;5011051;28;20042;-58
2023/10/12 07:35:42;;;;;;;8.07;4.70;;;15.80;99.90;;;;;;5019429;28;20060;-58
2023/10/12 07:38:13;;;;;;;6.95;4.25;;;15.80;99.90;;;;;;5015818;28;20037;-58
2023/10/12 07:41:03;;;;;;;8.15;5.43;;;15.80;99.90;;;;;;5019299;28;20112;-58
2023/10/12 07:43:32;;;;;;;6.13;5.25;;;15.80;99.90;;;;;;5009283;28;20056;-59
2023/10/12 07:46:12;;;;;;;9.57;5.18;;;15.80;99.90;;;;;;5011075;28;20054;-58
2023/10/12 07:48:44;;;;;;;7.57;5.00;;;15.80;99.90;;;;;;5022361;28;20046;-62
2023/10/12 07:51:24;;;;;;;8.18;4.65;;;15.80;99.90;;;;;;5018965;28;20038;-56
2023/10/12 07:53:59;;;;;;;4.47;4.00;;;15.80;99.90;;;;;;5014964;28;20054;-59
2023/10/12 07:56:34;;;;;;;5.88;4.10;;;15.90;99.90;;;;;;5015584;28;20054;-57
2023/10/12 07:59:01;;;;;;;4.75;3.55;;;15.90;99.90;;;;;;5004388;28;20105;-58
2023/10/12 08:03:58;;;;;;;4.25;3.33;;;16.00;99.90;;;;;;5016027;28;20099;-59
2023/10/12 08:11:45;;;;;;;4.72;2.92;;;16.00;99.90;;;;;;5018194;28;20336;-58
2023/10/12 08:19:42;;;;;;;13.20;4.68;;;16.00;99.90;;;;;;5013800;28;20103;-59
2023/10/12 08:22:16;;;;;;;13.02;4.50;;;16.00;99.90;;;;;;5016597;28;20045;-58
2023/10/12 08:24:46;;;;;;;11.35;3.67;;;16.00;99.90;;;;;;5011022;28;20060;-58
2023/10/12 08:27:13;;;;;;;10.07;3.80;;;16.00;99.90;;;;;;5007932;28;20046;-59
2023/10/12 08:37:17;;;;;;;13.13;5.18;;;16.10;99.90;;;;;;5018461;28;20041;-60
2023/10/12 08:45:06;;;;;;;7.25;5.00;;;16.20;99.90;;;;;;5005981;28;20153;-58
2023/10/12 08:52:29;;;;;;;7.72;4.65;;;16.20;99.90;;;;;;5019646;28;20045;-58
2023/10/12 08:55:05;;;;;;;9.30;4.30;;;16.20;99.90;;;;;;5016532;28;20042;-58
2023/10/12 08:57:55;;;;;;;12.88;5.25;;;16.20;99.90;;;;;;5017724;28;20058;-59
2023/10/12 09:03:13;;;;;;;14.32;6.60;;;16.10;99.90;;;;;;5010373;28;20098;-59
2023/10/12 09:05:41;;;;;;;8.35;4.30;;;16.10;99.90;;;;;;5007768;28;20049;-58
2023/10/12 09:13:28;;;;;;;5.78;4.75;;;16.10;99.90;;;;;;5012734;28;20449;-58
2023/10/12 09:15:56;;;;;;;7.78;5.38;;;16.00;99.90;;;;;;5016720;28;20429;-58
2023/10/12 09:18:45;;;;;;;8.48;5.00;;;16.00;99.90;;;;;;5013672;28;20479;-58
2023/10/12 09:26:34;;;;;;;8.88;5.78;;;16.00;99.90;;;;;;5022387;28;20687;-59
2023/10/12 09:36:37;;;;;;;4.90;3.95;;;16.10;99.90;;;;;;5011545;28;20096;-57
2023/10/12 09:39:24;;;;;;;5.95;4.78;;;16.10;99.90;;;;;;5012868;28;20054;-59
2023/10/12 09:41:55;;;;;;;;;;;16.10;99.90;;;;;;5011400;28;20308;-57
2023/10/12 09:44:26;;;;;;;6.45;4.13;;;16.00;99.90;;;;;;5011444;28;20213;-60
2023/10/12 09:46:57;;;;;;;7.18;2.75;;;16.10;99.90;;;;;;5012167;28;20037;-57
2023/10/12 09:49:29;;;;;;;4.47;3.17;;;16.00;99.90;;;;;;5014220;28;20083;-57
2023/10/12 09:51:59;;;;;;;7.45;3.40;;;15.90;99.90;;;;;;5011994;28;20049;-57
2023/10/12 09:55:06;;;;;;;4.30;3.22;;;16.00;99.90;;;;;;5012616;28;20054;-57
2023/10/12 09:57:40;;;;;;;4.30;2.97;;;16.10;99.90;;;;;;5013559;28;20594;-61
2023/10/12 10:03:08;;;;;;;4.55;3.38;;;16.20;99.90;;;;;;4988072;28;20049;-57
2023/10/12 10:05:51;;;;;;;4.63;3.30;;;16.30;99.90;;;;;;5002683;28;20092;-57
2023/10/12 10:08:26;;;;;;;6.40;3.47;;;16.40;99.90;;;;;;5002503;28;20034;-58
2023/10/12 10:10:57;;;;;;;4.00;3.25;;;16.40;99.90;;;;;;5006378;28;20273;-58
2023/10/12 10:13:57;;;;;;;4.18;3.30;;;16.40;99.90;;;;;;5012306;28;20104;-58
2023/10/12 10:16:25;;;;;;;4.88;3.10;;;16.20;99.90;;;;;;5025881;28;20132;-58
2023/10/12 10:19:14;;;;;;;5.88;3.25;;;16.30;99.90;;;;;;5006777;28;20046;-58
2023/10/12 10:21:50;;;;;;;8.23;4.82;;;16.30;99.90;;;;;;5009747;28;20054;-58
2023/10/12 10:24:23;;;;;;;6.72;3.47;;;16.40;99.90;;;;;;5014176;28;20042;-58
2023/10/12 10:26:58;;;;;;;5.68;3.97;;;16.40;99.90;;;;;;5008139;28;20050;-58
2023/10/12 10:29:53;;;;;;;6.72;3.67;;;16.50;99.90;;;;;;5008531;28;20034;-59
2023/10/12 10:32:29;;;;;;;7.93;4.03;;;16.50;99.90;;;;;;5017428;28;20409;-58
2023/10/12 10:35:04;;;;;;;6.32;4.25;;;16.50;99.90;;;;;;5007707;28;20045;-58
2023/10/12 10:38:00;;;;;;;7.53;4.13;;;16.50;99.90;;;;;;5014269;28;20088;-59
2023/10/12 10:40:48;;;;;;;8.50;4.70;;;16.40;99.90;;;;;;5005489;28;20555;-58
2023/10/12 10:43:15;;;;;;;5.63;4.00;;;16.40;99.90;;;;;;5017436;28;20049;-57
2023/10/12 10:45:56;;;;;;;7.72;4.03;;;16.20;99.90;;;;;;5012095;28;20049;-59
2023/10/12 10:48:23;;;;;;;5.95;4.05;;;16.20;99.90;;;;;;5018574;28;20056;-59
2023/10/12 10:51:19;;;;;;;5.65;3.70;;;16.20;99.90;;;;;;5007677;28;20042;-59
2023/10/12 10:53:52;;;;;;;5.70;3.33;;;16.20;99.90;;;;;;5023592;28;20073;-58
2023/10/12 10:56:41;;;;;;;5.95;3.75;;;16.10;99.90;;;;;;5021378;28;20060;-59
2023/10/12 10:59:12;;;;;;;6.68;3.63;;;16.20;99.90;;;;;;5011443;28;20053;-59
2023/10/12 11:01:49;;;;;;;4.88;3.20;;;16.20;99.90;;;;;;5009896;28;20069;-59
2023/10/12 11:07:04;;;;;;;6.07;3.67;;;16.30;99.90;;;;;;5011693;28;20115;-57
2023/10/12 11:09:31;;;;;;;6.47;3.83;;;16.30;99.90;;;;;;5021415;28;20085;-58
2023/10/12 11:12:01;;;;;;;8.07;3.75;;;16.20;99.90;;;;;;5010478;28;20046;-59
2023/10/12 11:14:31;;;;;;;7.70;3.72;;;16.20;99.90;;;;;;5021365;28;20094;-59
2023/10/12 11:17:00;;;;;;;10.63;3.75;;;16.20;99.90;;;;;;5010662;28;20038;-58
2023/10/12 11:19:27;;;;;;;7.53;3.78;;;16.20;99.90;;;;;;5025258;28;20054;-59
2023/10/12 11:21:57;;;;;;;6.57;3.88;;;16.10;99.90;;;;;;5009093;28;20042;-59
2023/10/12 11:24:24;;;;;;;5.57;3.88;;;16.10;99.90;;;;;;5019471;28;20455;-59
2023/10/12 11:26:54;;;;;;;8.15;4.82;;;16.00;99.90;;;;;;4995621;28;20035;-58
2023/10/12 11:29:24;;;;;;;5.05;3.65;;;16.10;99.90;;;;;;5025267;28;20490;-58
2023/10/12 11:32:16;;;;;;;5.07;3.47;;;16.00;99.90;;;;;;5009967;28;20529;-58
2023/10/12 11:34:52;;;;;;;4.43;3.08;;;16.10;99.90;;;;;;5018972;28;20049;-59
2023/10/12 11:37:19;;;;;;;4.53;3.00;;;16.00;99.90;;;;;;5010350;28;20348;-58
2023/10/12 11:39:47;;;;;;;5.28;3.60;;;16.00;99.90;;;;;;5016719;28;20527;-59
2023/10/12 11:42:14;;;;;;;4.22;3.00;;;15.90;99.90;;;;;;5013449;28;20061;-58
2023/10/12 11:44:45;;;;;;;7.68;3.20;;;16.00;99.90;;;;;;5015193;28;20052;-58
2023/10/12 11:47:23;;;;;;;5.22;3.92;;;16.00;99.90;;;;;;5015257;28;20252;-58
2023/10/12 11:49:58;;;;;;;4.55;3.80;;;16.00;99.90;;;;;;5006438;28;20132;-58
2023/10/12 11:52:33;;;;;;;6.95;4.10;;;16.10;99.90;;;;;;5018782;28;20057;-57
2023/10/12 11:55:18;;;;;;;8.15;4.18;;;16.20;99.90;;;;;;5010263;28;20080;-59
2023/10/12 11:58:07;;;;;;;5.63;4.15;;;16.30;99.90;;;;;;5010140;28;20100;-58
2023/10/12 12:00:37;;;;;;;5.22;3.67;;;16.30;99.90;;;;;;5018252;28;20056;-58
2023/10/12 12:03:08;;;;;;;9.05;3.97;;;16.20;99.90;;;;;;5011462;28;20493;-58
2023/10/12 12:05:39;;;;;;;5.43;3.85;;;16.30;99.90;;;;;;5016817;28;20085;-59
2023/10/12 12:08:15;;;;;;;5.28;4.18;;;16.30;99.90;;;;;;5012729;28;20481;-58
2023/10/12 12:10:45;;;;;;;7.80;4.30;;;16.40;99.90;;;;;;5016376;28;20049;-59
2023/10/12 12:13:15;;;;;;;6.45;5.40;;;16.40;99.90;;;;;;5013168;28;20520;-58
2023/10/12 12:15:45;;;;;;;7.68;4.57;;;16.40;99.90;;;;;;5024729;28;20053;-58
2023/10/12 12:18:19;;;;;;;7.38;5.40;;;16.50;99.90;;;;;;5009367;28;20052;-58
2023/10/12 12:20:50;;;;;;;6.80;5.35;;;16.50;99.90;;;;;;5006197;28;20489;-58
2023/10/12 12:23:18;;;;;;;6.97;5.28;;;16.50;99.90;;;;;;5003588;28;20042;-58
2023/10/12 12:25:45;;;;;;;6.55;5.45;;;16.60;99.90;;;;;;5021991;28;20163;-57
2023/10/12 12:28:15;;;;;;;9.75;5.25;;;16.70;99.90;;;;;;5016870;28;20050;-58
2023/10/12 12:30:46;;;;;;;8.60;6.30;;;16.70;99.90;;;;;;5007675;28;20061;-57
2023/10/12 12:33:25;;;;;;;11.98;6.97;;;16.70;99.90;;;;;;5007158;28;20486;-62
2023/10/12 12:35:59;;;;;;;9.40;6.07;;;16.60;99.90;;;;;;5009681;28;20104;-59
2023/10/12 12:40:55;;;;;;;7.68;6.45;;;16.50;99.90;;;;;;5008960;28;20045;-59
2023/10/12 12:43:22;;;;;;;16.40;10.60;;;16.40;99.90;;;;;;4998407;28;20117;-58
2023/10/12 12:45:48;;;;;;;11.55;7.57;;;16.40;99.90;;;;;;5023801;28;20497;-57
2023/10/12 12:48:15;;;;;;;11.68;8.23;;;16.40;99.90;;;;;;5019520;28;20513;-60
2023/10/12 12:50:43;;;;;;;15.18;8.75;;;16.40;99.90;;;;;;5007949;28;20050;-58
2023/10/12 12:53:11;;;;;;;11.80;7.20;;;16.40;99.90;;;;;;5019849;28;20041;-58
2023/10/12 12:55:41;;;;;;;8.82;7.18;;;16.30;99.90;;;;;;5023583;28;20129;-57
2023/10/12 12:58:09;;;;;;;7.78;6.82;;;16.40;99.90;;;;;;5019376;28;20054;-58
2023/10/12 13:00:36;;;;;;;16.90;11.40;;;16.50;99.90;;;;;;5009012;28;20529;-58
2023/10/12 13:03:03;;;;;;;16.25;10.80;;;16.50;99.90;;;;;;5007269;28;20069;-58
2023/10/12 13:05:32;;;;;;;14.05;10.00;;;16.50;99.90;;;;;;5009125;28;20460;-57
2023/10/12 13:08:00;;;;;;;10.18;8.63;;;16.50;99.90;;;;;;5017437;28;20053;-57
2023/10/12 13:10:26;;;;;;;27.83;19.00;;;16.50;99.90;;;;;;5008066;28;20177;-58
2023/10/12 13:12:53;;;;;;;19.83;11.32;;;16.60;99.90;;;;;;5023324;28;20532;-58
2023/10/12 13:15:22;;;;;;;13.43;10.07;;;16.70;99.90;;;;;;5008699;28;20064;-57
2023/10/12 13:17:49;;;;;;;11.73;8.65;;;16.70;99.90;;;;;;5014388;28;20084;-59
2023/10/12 13:20:22;;;;;;;9.65;7.95;;;16.70;99.90;;;;;;5013318;28;20125;-59
2023/10/12 13:22:49;;;;;;;29.77;17.23;;;16.60;99.90;;;;;;5002326;28;20041;-59
2023/10/12 13:25:18;;;;;;;20.30;16.00;;;16.70;99.90;;;;;;4992221;28;20042;-59
2023/10/12 13:27:46;;;;;;;20.45;14.05;;;16.70;99.90;;;;;;5000471;28;20137;-59
2023/10/12 13:30:14;;;;;;;16.33;12.43;;;16.70;99.90;;;;;;5014663;28;20080;-59
2023/10/12 13:32:44;;;;;;;15.55;11.50;;;16.70;99.90;;;;;;5014804;28;20046;-58
2023/10/12 13:37:58;;;;;;;16.92;12.05;;;16.60;99.90;;;;;;5009142;28;20130;-59
2023/10/12 13:40:26;;;;;;;17.00;13.15;;;16.70;99.90;;;;;;5015793;28;20497;-58
2023/10/12 13:42:53;;;;;;;17.08;14.40;;;16.70;99.90;;;;;;5016458;28;20042;-56
2023/10/12 13:45:21;;;;;;;16.95;14.80;;;16.70;99.90;;;;;;5017485;28;20120;-57
2023/10/12 13:47:47;;;;;;;20.33;14.40;;;16.80;99.90;;;;;;5007526;28;20069;-57
2023/10/12 13:50:14;;;;;;;17.52;14.10;;;16.90;99.90;;;;;;5013801;28;20128;-58
2023/10/12 13:52:42;;;;;;;29.92;17.90;;;16.90;99.90;;;;;;5012206;28;20045;-58
2023/10/12 13:55:13;;;;;;;18.73;13.68;;;16.90;99.90;;;;;;5009889;28;20095;-61
2023/10/12 13:57:57;;;;;;;16.75;14.07;;;16.90;99.90;;;;;;5019201;28;20050;-58
2023/10/12 14:00:27;;;;;;;;;;;16.90;99.90;;;;;;5007597;28;20060;-58
2023/10/12 14:02:56;;;;;;;17.08;14.00;;;16.90;99.90;;;;;;5007973;28;19921;-58
2023/10/12 14:05:29;;;;;;;20.92;15.48;;;16.90;99.90;;;;;;5017393;28;20052;-58
2023/10/12 14:08:00;;;;;;;19.02;14.35;;;16.90;99.90;;;;;;5023055;28;20045;-58
2023/10/12 14:10:27;;;;;;;13.02;10.60;;;16.80;99.90;;;;;;5007716;28;20049;-59
2023/10/12 14:12:54;;;;;;;17.17;11.40;;;16.70;99.90;;;;;;5008461;28;20393;-58
2023/10/12 14:15:21;;;;;;;19.23;11.98;;;16.70;99.90;;;;;;5018593;28;20076;-58
2023/10/12 14:17:54;;;;;;;9.05;7.40;;;16.70;99.90;;;;;;4998006;28;20038;-59
2023/10/12 14:20:33;;;;;;;12.80;8.88;;;16.60;99.90;;;;;;5016995;28;20060;-64
2023/10/12 14:23:06;;;;;;;12.43;8.02;;;16.70;99.90;;;;;;5007950;28;20042;-59
2023/10/12 14:25:38;;;;;;;11.67;7.87;;;16.70;99.90;;;;;;5022644;28;20057;-59
2023/10/12 14:28:05;;;;;;;8.70;6.25;;;16.70;99.90;;;;;;5007911;28;20049;-59
2023/10/12 14:30:33;;;;;;;8.60;6.88;;;16.70;99.90;;;;;;5008303;28;20065;-57
2023/10/12 14:33:02;;;;;;;8.70;7.07;;;16.70;99.90;;;;;;5011610;28;20538;-61
2023/10/12 14:35:39;;;;;;;7.93;7.00;;;16.80;99.90;;;;;;4998164;28;20052;-58
2023/10/12 14:38:13;;;;;;;7.68;6.68;;;16.70;99.90;;;;;;4668584;28;9999876;-59
2023/10/12 14:40:46;;;;;;;7.00;5.82;;;16.70;99.90;;;;;;5016288;28;20049;-59
2023/10/12 14:43:15;;;;;;;7.90;6.07;;;16.80;99.90;;;;;;5018226;28;20047;-59
2023/10/12 14:45:49;;;;;;;39.25;21.20;;;16.90;99.90;;;;;;5012671;28;20046;-57
2023/10/12 14:48:16;;;;;;;11.95;6.60;;;16.80;99.90;;;;;;5011080;28;20052;-58
2023/10/12 14:50:49;;;;;;;20.10;13.30;;;16.80;99.90;;;;;;5010674;28;20100;-58
2023/10/12 14:53:16;;;;;;;29.08;17.48;;;16.70;99.90;;;;;;5017624;28;20077;-58
2023/10/12 14:55:48;;;;;;;22.73;14.55;;;16.80;99.90;;;;;;5016990;28;20053;-57
2023/10/12 14:58:17;;;;;;;17.08;10.32;;;16.80;99.90;;;;;;5014612;28;20069;-58
2023/10/12 15:00:44;;;;;;;14.30;8.80;;;16.90;99.90;;;;;;5014498;28;20050;-58
2023/10/12 15:03:23;;;;;;;13.50;9.93;;;16.90;99.90;;;;;;5007119;28;20512;-58
2023/10/12 15:05:51;;;;;;;11.25;6.85;;;16.90;99.90;;;;;;5013188;28;20136;-58
2023/10/12 15:08:19;;;;;;;14.05;8.80;;;16.90;99.90;;;;;;5017017;28;20045;-59
2023/10/12 15:10:48;;;;;;;10.55;7.40;;;16.90;99.90;;;;;;5029190;28;20076;-59